Terminal Aerodrome Forecast
Issued by NWS

Home | Current Version | Previous Version | Graphics & Text | Print | Product List | Glossary On
Versions: 1 2 3 4 5 6 7 8 9 10 11 12 13 14
000
FTUS43 KMPX 281142
TAFAXN
TAF
KAXN 281142Z 2812/2912 14006KT P6SM BKN050
     FM281500 15010KT P6SM SKC
     FM281800 17018G27KT P6SM SCT200
     FM290800 20015G25KT 5SM -SNRA OVC030=

USA.gov is the U.S. government's official web portal to all federal, state and local government web resources and services.